sensor_id;sensor_type;location;lat;lon;timestamp;pressure;altitude;pressure_sealevel;temperature;humidity
53440;BME280;39333;47.044;15.080;2022-10-28T00:01:16;97435.63;;;10.19;71.34
53440;BME280;39333;47.044;15.080;2022-10-28T00:03:46;97443.38;;;10.20;70.97
53440;BME280;39333;47.044;15.080;2022-10-28T00:06:19;97435.41;;;10.07;70.85
53440;BME280;39333;47.044;15.080;2022-10-28T00:08:46;97429.13;;;10.01;70.87
53440;BME280;39333;47.044;15.080;2022-10-28T00:11:19;97438.47;;;10.10;71.06
53440;BME280;39333;47.044;15.080;2022-10-28T00:13:46;97437.03;;;10.14;71.17
53440;BME280;39333;47.044;15.080;2022-10-28T00:16:19;97436.28;;;10.01;70.66
53440;BME280;39333;47.044;15.080;2022-10-28T00:18:46;97435.84;;;10.04;70.96
53440;BME280;39333;47.044;15.080;2022-10-28T00:21:16;97436.47;;;10.06;71.16
53440;BME280;39333;47.044;15.080;2022-10-28T00:23:43;97428.28;;;10.07;71.10
53440;BME280;39333;47.044;15.080;2022-10-28T00:26:13;97432.41;;;10.03;71.17
53440;BME280;39333;47.044;15.080;2022-10-28T00:28:41;97425.25;;;10.04;70.84
53440;BME280;39333;47.044;15.080;2022-10-28T00:31:10;97429.94;;;10.02;70.70
53440;BME280;39333;47.044;15.080;2022-10-28T00:33:37;97428.94;;;9.96;70.60
53440;BME280;39333;47.044;15.080;2022-10-28T00:36:12;97430.41;;;9.79;71.21
53440;BME280;39333;47.044;15.080;2022-10-28T00:38:39;97419.81;;;9.79;72.08
53440;BME280;39333;47.044;15.080;2022-10-28T00:41:08;97424.69;;;9.82;71.40
53440;BME280;39333;47.044;15.080;2022-10-28T00:43:35;97423.28;;;9.79;71.20
53440;BME280;39333;47.044;15.080;2022-10-28T00:46:05;97422.50;;;9.72;71.33
53440;BME280;39333;47.044;15.080;2022-10-28T00:48:33;97421.44;;;9.80;71.42
53440;BME280;39333;47.044;15.080;2022-10-28T00:51:01;97414.13;;;9.69;71.27
53440;BME280;39333;47.044;15.080;2022-10-28T00:53:29;97415.78;;;9.70;71.01
53440;BME280;39333;47.044;15.080;2022-10-28T00:55:58;97402.13;;;9.66;71.03
53440;BME280;39333;47.044;15.080;2022-10-28T00:58:26;97409.63;;;9.76;70.99
53440;BME280;39333;47.044;15.080;2022-10-28T01:00:53;97411.88;;;9.79;70.96
53440;BME280;39333;47.044;15.080;2022-10-28T01:03:20;97408.00;;;9.75;70.64
53440;BME280;39333;47.044;15.080;2022-10-28T01:05:53;97403.50;;;9.75;71.16
53440;BME280;39333;47.044;15.080;2022-10-28T01:08:20;97407.63;;;9.58;71.88
53440;BME280;39333;47.044;15.080;2022-10-28T01:11:15;97403.97;;;9.46;72.46
53440;BME280;39333;47.044;15.080;2022-10-28T01:16:31;97397.47;;;9.48;72.00
53440;BME280;39333;47.044;15.080;2022-10-28T01:19:36;97395.28;;;9.06;73.44
53440;BME280;39333;47.044;15.080;2022-10-28T01:25:21;97392.00;;;8.97;73.38
53440;BME280;39333;47.044;15.080;2022-10-28T01:31:16;97397.31;;;9.04;73.77
53440;BME280;39333;47.044;15.080;2022-10-28T01:39:23;97398.31;;;9.03;73.51
53440;BME280;39333;47.044;15.080;2022-10-28T01:42:05;97391.19;;;9.03;72.92
53440;BME280;39333;47.044;15.080;2022-10-28T01:44:47;97381.63;;;9.09;72.51
53440;BME280;39333;47.044;15.080;2022-10-28T01:47:37;97388.16;;;9.06;71.93
53440;BME280;39333;47.044;15.080;2022-10-28T01:50:23;97375.31;;;9.17;72.56
53440;BME280;39333;47.044;15.080;2022-10-28T01:52:55;97388.94;;;9.20;72.21
53440;BME280;39333;47.044;15.080;2022-10-28T01:55:30;97386.91;;;9.16;72.42
53440;BME280;39333;47.044;15.080;2022-10-28T01:58:00;97383.47;;;9.22;71.97
53440;BME280;39333;47.044;15.080;2022-10-28T02:00:28;97375.31;;;9.23;71.80
53440;BME280;39333;47.044;15.080;2022-10-28T02:02:56;97382.22;;;9.11;72.08
53440;BME280;39333;47.044;15.080;2022-10-28T02:05:53;97380.19;;;9.13;72.59
53440;BME280;39333;47.044;15.080;2022-10-28T02:08:30;97386.69;;;9.10;72.36
53440;BME280;39333;47.044;15.080;2022-10-28T02:14:06;97379.19;;;8.74;73.38
53440;BME280;39333;47.044;15.080;2022-10-28T02:16:49;97375.09;;;8.65;74.23
53440;BME280;39333;47.044;15.080;2022-10-28T02:19:38;97370.38;;;8.61;73.21
53440;BME280;39333;47.044;15.080;2022-10-28T02:25:25;97374.72;;;8.88;72.68
53440;BME280;39333;47.044;15.080;2022-10-28T02:30:34;97371.66;;;8.91;71.75
53440;BME280;39333;47.044;15.080;2022-10-28T02:33:05;97367.34;;;8.77;72.08
53440;BME280;39333;47.044;15.080;2022-10-28T02:38:13;97359.84;;;8.87;71.85
53440;BME280;39333;47.044;15.080;2022-10-28T02:40:45;97363.72;;;8.85;72.10
53440;BME280;39333;47.044;15.080;2022-10-28T02:43:16;97354.75;;;8.79;71.53
53440;BME280;39333;47.044;15.080;2022-10-28T02:45:46;97350.72;;;8.76;72.21
53440;BME280;39333;47.044;15.080;2022-10-28T02:48:44;97355.78;;;8.71;71.83
53440;BME280;39333;47.044;15.080;2022-10-28T02:51:14;97353.94;;;8.78;71.83
53440;BME280;39333;47.044;15.080;2022-10-28T02:56:40;97350.28;;;8.86;71.42
53440;BME280;39333;47.044;15.080;2022-10-28T02:59:10;97350.72;;;8.76;71.55
53440;BME280;39333;47.044;15.080;2022-10-28T03:01:38;97356.00;;;8.76;71.64
53440;BME280;39333;47.044;15.080;2022-10-28T03:04:05;97350.91;;;8.82;71.58
53440;BME280;39333;47.044;15.080;2022-10-28T03:06:32;97360.47;;;8.83;71.49
53440;BME280;39333;47.044;15.080;2022-10-28T03:08:58;97351.09;;;8.67;70.89
53440;BME280;39333;47.044;15.080;2022-10-28T03:11:25;97358.38;;;8.38;71.91
53440;BME280;39333;47.044;15.080;2022-10-28T03:13:52;97343.94;;;8.41;72.76
53440;BME280;39333;47.044;15.080;2022-10-28T03:16:18;97356.78;;;8.44;72.14
53440;BME280;39333;47.044;15.080;2022-10-28T03:18:45;97356.97;;;8.56;72.75
53440;BME280;39333;47.044;15.080;2022-10-28T03:21:12;97332.38;;;8.55;72.14
53440;BME280;39333;47.044;15.080;2022-10-28T03:23:39;97357.16;;;8.61;71.79
53440;BME280;39333;47.044;15.080;2022-10-28T03:26:05;97354.53;;;8.41;71.70
53440;BME280;39333;47.044;15.080;2022-10-28T03:28:32;97356.53;;;8.39;71.72
53440;BME280;39333;47.044;15.080;2022-10-28T03:30:58;97355.72;;;8.45;72.09
53440;BME280;39333;47.044;15.080;2022-10-28T03:33:25;97351.06;;;8.47;71.45
53440;BME280;39333;47.044;15.080;2022-10-28T03:35:52;97360.81;;;8.40;71.71
53440;BME280;39333;47.044;15.080;2022-10-28T03:38:19;97362.16;;;8.29;71.52
53440;BME280;39333;47.044;15.080;2022-10-28T03:40:49;97360.13;;;8.31;72.09
53440;BME280;39333;47.044;15.080;2022-10-28T03:43:16;97362.84;;;8.45;71.76
53440;BME280;39333;47.044;15.080;2022-10-28T03:45:43;97356.94;;;8.36;71.52
53440;BME280;39333;47.044;15.080;2022-10-28T03:48:10;97349.63;;;8.38;72.12
53440;BME280;39333;47.044;15.080;2022-10-28T03:50:37;97352.88;;;8.40;71.74
53440;BME280;39333;47.044;15.080;2022-10-28T03:53:04;97347.75;;;8.25;71.68
53440;BME280;39333;47.044;15.080;2022-10-28T03:55:30;97356.06;;;8.29;71.67
53440;BME280;39333;47.044;15.080;2022-10-28T03:58:01;97353.88;;;8.32;71.95
53440;BME280;39333;47.044;15.080;2022-10-28T04:00:28;97356.06;;;8.22;71.88
53440;BME280;39333;47.044;15.080;2022-10-28T04:02:54;97366.81;;;8.21;72.16
53440;BME280;39333;47.044;15.080;2022-10-28T04:05:22;97365.19;;;8.20;72.01
53440;BME280;39333;47.044;15.080;2022-10-28T04:07:49;97360.09;;;8.12;71.78
53440;BME280;39333;47.044;15.080;2022-10-28T04:10:16;97366.81;;;8.21;71.87
53440;BME280;39333;47.044;15.080;2022-10-28T04:12:42;97353.03;;;8.25;71.90
53440;BME280;39333;47.044;15.080;2022-10-28T04:15:09;97353.03;;;8.25;71.10
53440;BME280;39333;47.044;15.080;2022-10-28T04:17:36;97348.97;;;8.23;71.43
53440;BME280;39333;47.044;15.080;2022-10-28T04:20:03;97344.50;;;8.23;71.78
53440;BME280;39333;47.044;15.080;2022-10-28T04:22:30;97337.53;;;8.16;71.51
53440;BME280;39333;47.044;15.080;2022-10-28T04:24:57;97336.22;;;7.85;72.42
53440;BME280;39333;47.044;15.080;2022-10-28T04:27:23;97347.25;;;7.95;72.91
53440;BME280;39333;47.044;15.080;2022-10-28T04:29:50;97343.13;;;7.86;72.32
53440;BME280;39333;47.044;15.080;2022-10-28T04:32:17;97346.84;;;7.98;72.63
53440;BME280;39333;47.044;15.080;2022-10-28T04:34:43;97344.03;;;8.06;72.33
53440;BME280;39333;47.044;15.080;2022-10-28T04:37:10;97337.47;;;7.96;71.82
53440;BME280;39333;47.044;15.080;2022-10-28T04:39:37;97346.06;;;8.04;72.22
53440;BME280;39333;47.044;15.080;2022-10-28T04:42:03;97350.13;;;8.07;71.48
53440;BME280;39333;47.044;15.080;2022-10-28T04:44:30;97345.84;;;8.06;71.54
53440;BME280;39333;47.044;15.080;2022-10-28T04:46:56;97345.19;;;7.97;71.54
53440;BME280;39333;47.044;15.080;2022-10-28T04:49:23;97339.50;;;7.87;72.16
53440;BME280;39333;47.044;15.080;2022-10-28T04:51:50;97339.09;;;7.90;72.34
53440;BME280;39333;47.044;15.080;2022-10-28T04:54:17;97337.47;;;7.89;72.03
53440;BME280;39333;47.044;15.080;2022-10-28T04:56:43;97336.84;;;7.87;72.16
53440;BME280;39333;47.044;15.080;2022-10-28T04:59:10;97334.81;;;7.89;72.70
53440;BME280;39333;47.044;15.080;2022-10-28T05:01:36;97340.53;;;7.93;72.24
53440;BME280;39333;47.044;15.080;2022-10-28T05:04:03;97337.84;;;7.86;72.27
53440;BME280;39333;47.044;15.080;2022-10-28T05:06:30;97335.84;;;7.88;71.98
53440;BME280;39333;47.044;15.080;2022-10-28T05:08:57;97330.94;;;7.79;72.38
53440;BME280;39333;47.044;15.080;2022-10-28T05:11:23;97326.66;;;7.78;73.02
53440;BME280;39333;47.044;15.080;2022-10-28T05:13:50;97330.31;;;7.83;72.27
53440;BME280;39333;47.044;15.080;2022-10-28T05:16:19;97331.38;;;7.89;72.16
53440;BME280;39333;47.044;15.080;2022-10-28T05:18:46;97323.66;;;7.87;72.03
53440;BME280;39333;47.044;15.080;2022-10-28T05:21:12;97318.13;;;7.82;71.96
53440;BME280;39333;47.044;15.080;2022-10-28T05:23:39;97325.44;;;7.80;72.08
53440;BME280;39333;47.044;15.080;2022-10-28T05:26:06;97330.47;;;7.68;71.88
53440;BME280;39333;47.044;15.080;2022-10-28T05:28:33;97326.00;;;7.62;72.49
53440;BME280;39333;47.044;15.080;2022-10-28T05:30:59;97328.63;;;7.62;72.27
53440;BME280;39333;47.044;15.080;2022-10-28T05:33:26;97331.88;;;7.64;72.66
53440;BME280;39333;47.044;15.080;2022-10-28T05:35:53;97326.75;;;7.56;71.95
53440;BME280;39333;47.044;15.080;2022-10-28T05:38:19;97319.09;;;7.68;72.12
53440;BME280;39333;47.044;15.080;2022-10-28T05:40:46;97327.81;;;7.62;71.96
53440;BME280;39333;47.044;15.080;2022-10-28T05:43:13;97320.50;;;7.64;72.35
53440;BME280;39333;47.044;15.080;2022-10-28T05:45:39;97331.09;;;7.70;71.97
53440;BME280;39333;47.044;15.080;2022-10-28T05:48:06;97331.66;;;7.66;72.02
53440;BME280;39333;47.044;15.080;2022-10-28T05:50:32;97327.25;;;7.73;71.86
53440;BME280;39333;47.044;15.080;2022-10-28T05:52:59;97329.31;;;7.78;71.60
53440;BME280;39333;47.044;15.080;2022-10-28T05:55:27;97326.03;;;7.76;71.46
53440;BME280;39333;47.044;15.080;2022-10-28T05:57:55;97329.63;;;7.61;71.75
53440;BME280;39333;47.044;15.080;2022-10-28T06:00:24;97327.81;;;7.68;72.34
53440;BME280;39333;47.044;15.080;2022-10-28T06:02:51;97335.81;;;7.82;71.81
53440;BME280;39333;47.044;15.080;2022-10-28T06:05:19;97341.50;;;7.85;71.73
53440;BME280;39333;47.044;15.080;2022-10-28T06:07:46;97344.75;;;7.87;71.28
53440;BME280;39333;47.044;15.080;2022-10-28T06:10:12;97338.63;;;7.80;71.34
53440;BME280;39333;47.044;15.080;2022-10-28T06:12:39;97337.81;;;7.80;71.94
53440;BME280;39333;47.044;15.080;2022-10-28T06:15:06;97341.34;;;7.46;73.23
53440;BME280;39333;47.044;15.080;2022-10-28T06:17:33;97343.56;;;7.14;74.37
53440;BME280;39333;47.044;15.080;2022-10-28T06:20:00;97345.06;;;6.95;75.71
53440;BME280;39333;47.044;15.080;2022-10-28T06:22:27;97345.34;;;7.07;75.67
53440;BME280;39333;47.044;15.080;2022-10-28T06:24:53;97345.66;;;7.25;75.18
53440;BME280;39333;47.044;15.080;2022-10-28T06:27:20;97348.63;;;7.44;74.63
53440;BME280;39333;47.044;15.080;2022-10-28T06:29:47;97355.22;;;7.61;74.47
53440;BME280;39333;47.044;15.080;2022-10-28T06:32:13;97356.47;;;7.71;73.79
53440;BME280;39333;47.044;15.080;2022-10-28T06:34:40;97351.25;;;7.78;73.08
53440;BME280;39333;47.044;15.080;2022-10-28T06:37:06;97354.50;;;7.87;73.85
53440;BME280;39333;47.044;15.080;2022-10-28T06:39:33;97356.19;;;7.94;73.63
53440;BME280;39333;47.044;15.080;2022-10-28T06:42:00;97355.41;;;8.07;74.15
53440;BME280;39333;47.044;15.080;2022-10-28T06:44:26;97362.34;;;8.21;74.00
53440;BME280;39333;47.044;15.080;2022-10-28T06:46:54;97356.75;;;8.37;74.67
53440;BME280;39333;47.044;15.080;2022-10-28T06:49:21;97360.84;;;8.53;74.87
53440;BME280;39333;47.044;15.080;2022-10-28T06:51:47;97357.19;;;8.67;74.80
53440;BME280;39333;47.044;15.080;2022-10-28T06:54:15;97358.84;;;8.88;76.00
53440;BME280;39333;47.044;15.080;2022-10-28T06:56:42;97349.91;;;9.09;75.58
53440;BME280;39333;47.044;15.080;2022-10-28T06:59:10;97358.19;;;9.32;75.89
53440;BME280;39333;47.044;15.080;2022-10-28T07:01:37;97356.34;;;9.53;75.18
53440;BME280;39333;47.044;15.080;2022-10-28T07:04:05;97363.38;;;9.85;75.27
53440;BME280;39333;47.044;15.080;2022-10-28T07:06:31;97365.91;;;10.11;75.89
53440;BME280;39333;47.044;15.080;2022-10-28T07:08:58;97361.75;;;10.35;74.81
53440;BME280;39333;47.044;15.080;2022-10-28T07:11:25;97364.63;;;10.65;74.79
53440;BME280;39333;47.044;15.080;2022-10-28T07:13:51;97369.69;;;10.98;74.37
53440;BME280;39333;47.044;15.080;2022-10-28T07:16:18;97369.47;;;11.25;73.23
53440;BME280;39333;47.044;15.080;2022-10-28T07:18:45;97370.63;;;11.53;72.08
53440;BME280;39333;47.044;15.080;2022-10-28T07:21:12;97372.94;;;11.68;72.19
53440;BME280;39333;47.044;15.080;2022-10-28T07:23:39;97376.28;;;11.82;72.01
53440;BME280;39333;47.044;15.080;2022-10-28T07:26:06;97367.84;;;12.03;70.93
53440;BME280;39333;47.044;15.080;2022-10-28T07:28:32;97367.75;;;12.28;71.27
53440;BME280;39333;47.044;15.080;2022-10-28T07:31:00;97377.22;;;12.54;71.06
53440;BME280;39333;47.044;15.080;2022-10-28T07:33:27;97381.69;;;12.72;70.30
53440;BME280;39333;47.044;15.080;2022-10-28T07:35:54;97367.50;;;12.89;69.28
53440;BME280;39333;47.044;15.080;2022-10-28T07:38:21;97370.66;;;13.10;70.43
53440;BME280;39333;47.044;15.080;2022-10-28T07:40:47;97362.84;;;13.26;70.19
53440;BME280;39333;47.044;15.080;2022-10-28T07:43:14;97365.50;;;13.50;69.89
53440;BME280;39333;47.044;15.080;2022-10-28T07:45:41;97369.56;;;13.76;69.68
53440;BME280;39333;47.044;15.080;2022-10-28T07:48:08;97362.53;;;13.98;69.18
53440;BME280;39333;47.044;15.080;2022-10-28T07:50:34;97357.84;;;14.17;68.79
53440;BME280;39333;47.044;15.080;2022-10-28T07:53:01;97357.22;;;14.38;68.41
53440;BME280;39333;47.044;15.080;2022-10-28T07:55:28;97356.34;;;14.61;67.07
53440;BME280;39333;47.044;15.080;2022-10-28T07:57:54;97350.88;;;14.84;66.44
53440;BME280;39333;47.044;15.080;2022-10-28T08:00:22;97348.53;;;15.04;65.27
53440;BME280;39333;47.044;15.080;2022-10-28T08:02:48;97343.53;;;15.08;65.77
53440;BME280;39333;47.044;15.080;2022-10-28T08:05:16;97352.66;;;15.29;65.68
53440;BME280;39333;47.044;15.080;2022-10-28T08:07:43;97352.97;;;15.16;64.77
53440;BME280;39333;47.044;15.080;2022-10-28T08:10:12;97351.22;;;15.21;64.70
53440;BME280;39333;47.044;15.080;2022-10-28T08:12:39;97343.22;;;15.43;64.68
53440;BME280;39333;47.044;15.080;2022-10-28T08:15:06;97354.72;;;15.44;63.37
53440;BME280;39333;47.044;15.080;2022-10-28T08:17:35;97342.84;;;15.51;64.08
53440;BME280;39333;47.044;15.080;2022-10-28T08:20:03;97354.41;;;15.73;63.75
53440;BME280;39333;47.044;15.080;2022-10-28T08:22:29;97355.22;;;15.96;64.27
53440;BME280;39333;47.044;15.080;2022-10-28T08:24:56;97338.78;;;16.09;64.12
53440;BME280;39333;47.044;15.080;2022-10-28T08:27:23;97349.06;;;16.17;64.14
53440;BME280;39333;47.044;15.080;2022-10-28T08:29:50;97343.97;;;16.37;63.93
53440;BME280;39333;47.044;15.080;2022-10-28T08:32:18;97350.16;;;16.65;63.45
53440;BME280;39333;47.044;15.080;2022-10-28T08:34:45;97356.38;;;16.70;62.40
53440;BME280;39333;47.044;15.080;2022-10-28T08:37:12;97352.59;;;16.66;61.66
53440;BME280;39333;47.044;15.080;2022-10-28T08:39:41;97356.88;;;16.67;60.57
53440;BME280;39333;47.044;15.080;2022-10-28T08:42:48;97359.34;;;16.74;60.67
53440;BME280;39333;47.044;15.080;2022-10-28T08:45:18;97354.06;;;17.11;59.94
53440;BME280;39333;47.044;15.080;2022-10-28T08:48:10;97354.47;;;17.30;59.21
53440;BME280;39333;47.044;15.080;2022-10-28T08:50:45;97356.78;;;17.53;58.62
53440;BME280;39333;47.044;15.080;2022-10-28T08:53:22;97353.25;;;17.85;59.00
53440;BME280;39333;47.044;15.080;2022-10-28T08:55:52;97351.25;;;18.22;58.06
53440;BME280;39333;47.044;15.080;2022-10-28T08:58:29;97357.78;;;18.51;56.98
53440;BME280;39333;47.044;15.080;2022-10-28T09:00:58;97350.03;;;18.50;56.93
53440;BME280;39333;47.044;15.080;2022-10-28T09:03:32;97354.03;;;18.52;57.31
53440;BME280;39333;47.044;15.080;2022-10-28T09:06:06;97347.63;;;18.59;55.96
53440;BME280;39333;47.044;15.080;2022-10-28T09:08:39;97352.81;;;18.96;56.97
53440;BME280;39333;47.044;15.080;2022-10-28T09:13:58;97354.16;;;19.13;56.46
53440;BME280;39333;47.044;15.080;2022-10-28T09:16:45;97348.50;;;19.05;55.04
53440;BME280;39333;47.044;15.080;2022-10-28T09:19:47;97351.75;;;19.27;54.67
53440;BME280;39333;47.044;15.080;2022-10-28T09:28:06;97355.22;;;19.38;55.58
53440;BME280;39333;47.044;15.080;2022-10-28T09:30:49;97347.69;;;19.60;55.17
53440;BME280;39333;47.044;15.080;2022-10-28T09:35:44;97358.69;;;19.74;53.46
53440;BME280;39333;47.044;15.080;2022-10-28T09:38:26;97355.97;;;19.94;53.54
53440;BME280;39333;47.044;15.080;2022-10-28T09:40:58;97364.34;;;19.67;54.38
53440;BME280;39333;47.044;15.080;2022-10-28T09:45:59;97354.84;;;20.00;55.89
53440;BME280;39333;47.044;15.080;2022-10-28T09:48:30;97350.13;;;20.41;54.35
53440;BME280;39333;47.044;15.080;2022-10-28T09:50:58;97353.94;;;20.79;52.26
53440;BME280;39333;47.044;15.080;2022-10-28T09:53:42;97357.13;;;20.91;53.19
53440;BME280;39333;47.044;15.080;2022-10-28T09:56:10;97352.81;;;20.90;53.41
53440;BME280;39333;47.044;15.080;2022-10-28T09:58:39;97348.13;;;21.06;56.01
53440;BME280;39333;47.044;15.080;2022-10-28T10:01:08;97352.31;;;21.22;53.29
53440;BME280;39333;47.044;15.080;2022-10-28T10:03:34;97348.03;;;21.50;50.05
53440;BME280;39333;47.044;15.080;2022-10-28T10:08:43;97339.22;;;21.92;50.50
53440;BME280;39333;47.044;15.080;2022-10-28T10:11:20;97341.09;;;21.68;51.58
53440;BME280;39333;47.044;15.080;2022-10-28T10:13:51;97338.72;;;21.38;52.14
53440;BME280;39333;47.044;15.080;2022-10-28T10:16:44;97346.25;;;21.02;49.56
53440;BME280;39333;47.044;15.080;2022-10-28T10:19:12;97346.06;;;21.27;48.88
53440;BME280;39333;47.044;15.080;2022-10-28T10:24:40;97339.16;;;21.45;46.27
53440;BME280;39333;47.044;15.080;2022-10-28T10:27:18;97334.94;;;21.39;46.74
53440;BME280;39333;47.044;15.080;2022-10-28T10:29:47;97332.25;;;21.62;49.88
53440;BME280;39333;47.044;15.080;2022-10-28T10:32:18;97326.75;;;21.96;50.05
53440;BME280;39333;47.044;15.080;2022-10-28T10:37:20;97325.94;;;22.62;48.35
53440;BME280;39333;47.044;15.080;2022-10-28T10:40:05;97318.72;;;22.77;46.19
53440;BME280;39333;47.044;15.080;2022-10-28T10:42:33;97315.56;;;22.69;45.19
53440;BME280;39333;47.044;15.080;2022-10-28T10:45:20;97325.00;;;22.53;47.65
53440;BME280;39333;47.044;15.080;2022-10-28T10:47:47;97320.75;;;22.47;46.77
53440;BME280;39333;47.044;15.080;2022-10-28T10:50:21;97322.22;;;22.77;48.08
53440;BME280;39333;47.044;15.080;2022-10-28T10:52:51;97313.97;;;22.68;52.75
53440;BME280;39333;47.044;15.080;2022-10-28T10:55:24;97312.88;;;22.69;47.01
53440;BME280;39333;47.044;15.080;2022-10-28T10:57:53;97312.41;;;22.62;46.72
53440;BME280;39333;47.044;15.080;2022-10-28T11:00:21;97300.53;;;22.82;51.91
53440;BME280;39333;47.044;15.080;2022-10-28T11:02:50;97301.09;;;22.98;47.42
53440;BME280;39333;47.044;15.080;2022-10-28T11:05:22;97294.66;;;23.26;52.84
53440;BME280;39333;47.044;15.080;2022-10-28T11:07:57;97301.56;;;23.51;45.26
53440;BME280;39333;47.044;15.080;2022-10-28T11:10:31;97293.16;;;23.66;45.40
53440;BME280;39333;47.044;15.080;2022-10-28T11:13:13;97289.75;;;23.75;52.25
53440;BME280;39333;47.044;15.080;2022-10-28T11:16:01;97290.88;;;24.01;49.34
53440;BME280;39333;47.044;15.080;2022-10-28T11:18:40;97280.34;;;23.99;45.77
53440;BME280;39333;47.044;15.080;2022-10-28T11:26:25;97280.34;;;23.26;47.32
53440;BME280;39333;47.044;15.080;2022-10-28T11:29:10;97271.53;;;23.34;50.89
53440;BME280;39333;47.044;15.080;2022-10-28T11:40:35;97265.81;;;23.68;45.94
53440;BME280;39333;47.044;15.080;2022-10-28T11:51:58;97257.25;;;23.61;46.86
53440;BME280;39333;47.044;15.080;2022-10-28T11:57:15;97246.91;;;24.04;44.73
53440;BME280;39333;47.044;15.080;2022-10-28T12:00:20;97250.06;;;24.20;47.12
53440;BME280;39333;47.044;15.080;2022-10-28T12:03:14;97248.91;;;24.26;44.27
53440;BME280;39333;47.044;15.080;2022-10-28T12:05:56;97243.69;;;24.52;53.62
53440;BME280;39333;47.044;15.080;2022-10-28T12:16:51;97229.19;;;24.48;46.88
53440;BME280;39333;47.044;15.080;2022-10-28T12:19:37;97236.19;;;24.49;49.97
53440;BME280;39333;47.044;15.080;2022-10-28T12:24:45;97224.22;;;24.14;47.44
53440;BME280;39333;47.044;15.080;2022-10-28T12:27:23;97229.84;;;24.17;48.03
53440;BME280;39333;47.044;15.080;2022-10-28T12:29:54;97222.88;;;23.75;45.32
53440;BME280;39333;47.044;15.080;2022-10-28T12:32:32;97220.13;;;23.48;45.71
53440;BME280;39333;47.044;15.080;2022-10-28T12:35:12;97228.50;;;23.65;50.29
53440;BME280;39333;47.044;15.080;2022-10-28T12:37:53;97221.44;;;23.91;47.28
53440;BME280;39333;47.044;15.080;2022-10-28T12:40:27;97224.81;;;24.11;47.33
53440;BME280;39333;47.044;15.080;2022-10-28T12:43:37;97220.69;;;24.27;44.56
53440;BME280;39333;47.044;15.080;2022-10-28T12:46:13;97228.06;;;23.99;48.17
53440;BME280;39333;47.044;15.080;2022-10-28T12:48:50;97215.66;;;23.84;47.42
53440;BME280;39333;47.044;15.080;2022-10-28T12:51:25;97219.94;;;24.49;54.78
53440;BME280;39333;47.044;15.080;2022-10-28T12:54:05;97213.09;;;24.73;48.69
53440;BME280;39333;47.044;15.080;2022-10-28T12:56:42;97212.00;;;24.97;49.70
53440;BME280;39333;47.044;15.080;2022-10-28T12:59:18;97213.16;;;25.04;51.39
53440;BME280;39333;47.044;15.080;2022-10-28T13:01:48;97214.63;;;25.10;52.41
53440;BME280;39333;47.044;15.080;2022-10-28T13:04:16;97210.63;;;24.63;44.79
53440;BME280;39333;47.044;15.080;2022-10-28T13:17:26;97200.84;;;25.29;48.08
53440;BME280;39333;47.044;15.080;2022-10-28T13:25:36;97204.41;;;25.78;49.46
53440;BME280;39333;47.044;15.080;2022-10-28T13:28:12;97205.69;;;25.89;47.99
53440;BME280;39333;47.044;15.080;2022-10-28T13:31:10;97206.84;;;26.05;49.60
53440;BME280;39333;47.044;15.080;2022-10-28T13:33:37;97211.00;;;26.11;48.27
53440;BME280;39333;47.044;15.080;2022-10-28T13:36:18;97212.94;;;26.20;43.93
53440;BME280;39333;47.044;15.080;2022-10-28T13:38:55;97213.13;;;26.32;46.26
53440;BME280;39333;47.044;15.080;2022-10-28T13:41:36;97216.00;;;26.35;51.89
53440;BME280;39333;47.044;15.080;2022-10-28T13:49:28;97214.19;;;25.48;46.42
53440;BME280;39333;47.044;15.080;2022-10-28T13:57:30;97220.34;;;25.40;43.04
53440;BME280;39333;47.044;15.080;2022-10-28T14:00:05;97222.72;;;25.33;48.03
53440;BME280;39333;47.044;15.080;2022-10-28T14:02:45;97216.72;;;25.44;48.73
53440;BME280;39333;47.044;15.080;2022-10-28T14:05:15;97217.41;;;25.59;50.23
53440;BME280;39333;47.044;15.080;2022-10-28T14:07:52;97222.06;;;25.67;48.72
53440;BME280;39333;47.044;15.080;2022-10-28T14:10:27;97227.38;;;25.72;50.77
53440;BME280;39333;47.044;15.080;2022-10-28T14:13:04;97228.97;;;25.73;47.88
53440;BME280;39333;47.044;15.080;2022-10-28T14:15:34;97220.47;;;25.66;50.02
53440;BME280;39333;47.044;15.080;2022-10-28T14:18:05;97224.78;;;25.67;48.69
53440;BME280;39333;47.044;15.080;2022-10-28T14:20:55;97225.94;;;25.74;52.35
53440;BME280;39333;47.044;15.080;2022-10-28T14:33:35;97238.03;;;25.29;51.06
53440;BME280;39333;47.044;15.080;2022-10-28T14:49:38;97235.53;;;24.65;52.20
53440;BME280;39333;47.044;15.080;2022-10-28T14:52:17;97237.06;;;24.58;52.27
53440;BME280;39333;47.044;15.080;2022-10-28T14:54:51;97234.09;;;24.46;52.34
53440;BME280;39333;47.044;15.080;2022-10-28T14:57:26;97229.69;;;24.36;53.43
53440;BME280;39333;47.044;15.080;2022-10-28T15:00:05;97230.06;;;23.93;52.89
53440;BME280;39333;47.044;15.080;2022-10-28T15:02:34;97230.38;;;23.78;53.93
53440;BME280;39333;47.044;15.080;2022-10-28T15:05:20;97222.56;;;23.63;54.75
53440;BME280;39333;47.044;15.080;2022-10-28T15:07:47;97218.63;;;23.42;54.13
53440;BME280;39333;47.044;15.080;2022-10-28T15:10:17;97216.19;;;23.26;54.55
53440;BME280;39333;47.044;15.080;2022-10-28T15:12:45;97222.63;;;22.84;56.42
53440;BME280;39333;47.044;15.080;2022-10-28T15:15:20;97221.50;;;22.34;57.25
53440;BME280;39333;47.044;15.080;2022-10-28T15:17:47;97218.81;;;22.34;55.93
53440;BME280;39333;47.044;15.080;2022-10-28T15:22:52;97231.06;;;22.08;57.88
53440;BME280;39333;47.044;15.080;2022-10-28T15:25:21;97229.22;;;21.79;57.87
53440;BME280;39333;47.044;15.080;2022-10-28T15:27:50;97234.72;;;21.74;58.11
53440;BME280;39333;47.044;15.080;2022-10-28T15:30:20;97244.91;;;21.77;58.04
53440;BME280;39333;47.044;15.080;2022-10-28T15:32:50;97241.53;;;21.67;56.80
53440;BME280;39333;47.044;15.080;2022-10-28T15:37:53;97238.34;;;21.41;59.07
53440;BME280;39333;47.044;15.080;2022-10-28T15:40:30;97237.97;;;21.18;58.02